Salt Lake City, UT

5:11 AM MDT en Octubre 25, 2014 (GMT -0600)
Salt Lake Avenues | Change Station
CLOSE
Current Station
Estación meteorológica personal
Location: Salt Lake City, UT
Altura: 5233 ft
Estaciones meteorológicas cercanas
Aviso en curso: Wind Advisory Aviso activo: Record Report

Alt 5233 ft 40.79 °N, 111.86 °W | Updated 1 minute ago

Despejado
Despejado
61.6 ° F
Sensación térmica 61.6 ° F
N
3.4
Viento Variable Viento desde Norte
Gusts 8.5 mph

Hoy
Alta -- | Baja -- ° F
--% Posibilidad de precipitaciones
Ayer
Alta -- | Baja -- ° F
Precip. -- pul
7:49 AM 6:32 PM
Creciente, 3% visible
Presión 29.94 pul
Visibilidad 10.0 Millas
Nubes Despejado
Punto de rocío 26 ° F
Humedad 26%
Precipitaciones 0.00 pul
Espesor de la nieve 0 in , 0 in , 1 in
UV 0 de una escala de 12
Polen 1.80 de una escala de 12
Ozono Buena
PM2.5 Buena
Flu Activity Sporadic
METAR KSLC 251053Z 15011KT 10SM CLR 14/M01 A3006 RMK AO2 SLP139 T01441011

More Conditions Fewer Conditions

Presión 29.94 pul
Visibilidad 10.0 Millas
Nubes Despejado
Punto de rocío 26 ° F
Humedad 26%
Precipitaciones 0.00 pul
Espesor de la nieve 0 in , 0 in , 1 in
UV 0 de una escala de 12
Polen 1.80 de una escala de 12
Ozono Buena
PM2.5 Buena
Flu Activity Sporadic
METAR KSLC 251053Z 15011KT 10SM CLR 14/M01 A3006 RMK AO2 SLP139 T01441011

More Conditions Fewer Conditions

10-Day Weather Forecast

Almanac

Astronomía

Oct. 25, 2014 Salida Puesta
Hora real 7:49 AM MDT 6:32 PM MDT
Crepúsculo civil 7:21 AM MDT 7:00 PM MDT
Crepúsculo náutico 6:49 AM MDT 7:32 PM MDT
Crepúsculo astronómico 6:18 AM MDT 8:04 PM MDT
Luna 9:32 AM MDT 7:58 PM MDT
Horas de luz 11h 38m
Horas de luz
10h 42m
Tomorrow will be 2m 29s shorter.
Creciente, 3% of the Moon is Illuminated
Hoy
Creciente
Oct 30
Cuarto creciente
Nov 6
Luna llena
Nov 14
Cuarto menguante
Nov 22
Nueva

Extremos de hoy

Máximos del estado Bajos del estado

Community

WunderPhotos

Upload Photos

1,764,808 ¡fotos cargadas!

Nearby

Calidad del aire

  Calidad del aire Índice AQ Contaminante
Ayer Buena
PM2.5
Ayer Buena
OZONE
Real Buena
PM2.5
Real Buena
OZONE
Sábado Buena
OZONE
Domingo Buena
OZONE

Grosos de nieve

Estación Profundido Altura
Louis Meadow 0 in 6700 ft
Lookout Peak 0 in 8200 ft
Parrish Creek 0 in 7740 ft
Farmington 1 in 8000 ft
Mill-d North 0 in 8960 ft

Actividad de terremotos

Ciudad Distance Mag. Tiempo y dato
Ferron, Utah 125 Millas 2.5 10:53 PM MDT
2014-10-21
Magnitud mínima muestra es 2,5.

Temperaturas de aguas costeras

Lugar Temperatura
Sin partes meteorológicos de las estaciones

Estaciones meteorológicas cercanas